createdAt,value
2019-02-25T00:02:14.108Z,6.85
2019-02-25T00:04:44.920Z,7.00
2019-02-25T00:07:15.500Z,6.60
2019-02-25T00:09:46.186Z,9.00
2019-02-25T00:12:16.984Z,6.58
2019-02-25T00:14:47.604Z,7.30
2019-02-25T00:17:18.149Z,7.28
2019-02-25T00:19:48.776Z,7.25
2019-02-25T00:22:19.362Z,6.85
2019-02-25T00:24:50.217Z,6.65
2019-02-25T00:27:20.902Z,5.50
2019-02-25T00:29:51.570Z,5.35
2019-02-25T00:32:22.166Z,5.65
2019-02-25T00:34:52.761Z,5.50
2019-02-25T00:37:23.390Z,5.05
2019-02-25T00:39:54.038Z,5.25
2019-02-25T00:42:24.642Z,5.67
2019-02-25T00:44:57.523Z,5.25
2019-02-25T00:47:29.499Z,5.83
2019-02-25T00:50:00.283Z,5.42
2019-02-25T00:52:31.093Z,5.85
2019-02-25T00:55:01.754Z,5.30
2019-02-25T00:57:32.318Z,5.20
2019-02-25T01:00:02.864Z,5.97
2019-02-25T01:02:33.957Z,5.70
2019-02-25T01:05:05.002Z,5.45
2019-02-25T01:07:35.559Z,5.55
2019-02-25T01:10:07.176Z,4.87
2019-02-25T01:12:37.776Z,5.70
2019-02-25T01:15:08.607Z,5.55
2019-02-25T01:17:39.229Z,5.40
2019-02-25T01:20:09.876Z,5.03
2019-02-25T01:22:40.432Z,5.45
2019-02-25T01:25:11.320Z,5.60
2019-02-25T01:27:42.031Z,4.53
2019-02-25T01:30:13.471Z,4.78
2019-02-25T01:32:44.205Z,4.70
2019-02-25T01:35:17.998Z,5.20
2019-02-25T01:37:48.895Z,5.80
2019-02-25T01:40:19.773Z,4.47
2019-02-25T01:42:50.788Z,4.78
2019-02-25T01:45:21.485Z,4.95
2019-02-25T01:47:52.242Z,4.75
2019-02-25T01:50:22.994Z,6.25
2019-02-25T01:52:53.619Z,5.83
2019-02-25T01:55:24.488Z,5.12
2019-02-25T01:57:55.114Z,4.87
2019-02-25T02:00:25.891Z,4.62
2019-02-25T02:02:56.581Z,5.00
2019-02-25T02:05:27.414Z,5.22
2019-02-25T02:07:58.079Z,4.72
2019-02-25T02:10:28.812Z,5.22
2019-02-25T02:12:59.542Z,6.03
2019-02-25T02:15:30.196Z,7.37
2019-02-25T02:18:00.967Z,7.30
2019-02-25T02:20:31.560Z,6.42
2019-02-25T02:23:02.196Z,4.92
2019-02-25T02:25:32.834Z,5.25
2019-02-25T02:28:03.364Z,5.20
2019-02-25T02:30:34.045Z,5.10
2019-02-25T02:33:04.633Z,5.28
2019-02-25T02:35:35.310Z,5.65
2019-02-25T02:38:06.089Z,5.90
2019-02-25T02:40:36.791Z,8.63
2019-02-25T02:43:07.620Z,7.45
2019-02-25T02:45:51.393Z,6.92
2019-02-25T02:48:38.743Z,4.72
2019-02-25T02:51:09.365Z,4.90
2019-02-25T02:53:40.024Z,5.30
2019-02-25T02:56:10.780Z,5.40
2019-02-25T02:58:41.374Z,4.40
2019-02-25T03:01:12.016Z,4.75
2019-02-25T03:03:42.662Z,5.12
2019-02-25T03:06:13.321Z,5.10
2019-02-25T03:08:44.102Z,4.97
2019-02-25T03:11:14.745Z,5.15
2019-02-25T03:13:45.480Z,5.17
2019-02-25T03:16:16.184Z,5.50
2019-02-25T03:18:46.784Z,5.50
2019-02-25T03:21:17.674Z,5.67
2019-02-25T03:23:48.285Z,6.05
2019-02-25T03:26:18.968Z,5.97
2019-02-25T03:28:49.547Z,5.83
2019-02-25T03:31:20.294Z,5.17
2019-02-25T03:33:50.941Z,5.30
2019-02-25T03:36:21.796Z,5.97
2019-02-25T03:38:52.419Z,5.60
2019-02-25T03:41:23.099Z,6.17
2019-02-25T03:43:53.836Z,4.45
2019-02-25T03:46:24.536Z,5.97
2019-02-25T03:48:55.211Z,4.70
2019-02-25T03:51:25.776Z,4.97
2019-02-25T03:53:56.405Z,5.28
2019-02-25T03:56:27.040Z,5.47
2019-02-25T03:58:57.815Z,5.35
2019-02-25T04:01:28.500Z,5.05
2019-02-25T04:03:59.151Z,5.80
2019-02-25T04:06:29.759Z,5.72
2019-02-25T04:09:00.558Z,5.05
2019-02-25T04:11:31.395Z,5.45
2019-02-25T04:14:02.001Z,5.30
2019-02-25T04:16:32.719Z,5.20
2019-02-25T04:19:03.400Z,6.40
2019-02-25T04:21:34.578Z,5.47
2019-02-25T04:24:06.637Z,5.12
2019-02-25T04:26:37.280Z,5.28
2019-02-25T04:29:07.971Z,4.87
2019-02-25T04:31:38.501Z,4.97
2019-02-25T04:34:11.020Z,4.90
2019-02-25T04:36:48.196Z,5.70
2019-02-25T04:39:22.545Z,4.87
2019-02-25T04:41:53.181Z,6.03
2019-02-25T04:44:23.746Z,5.65
2019-02-25T04:46:54.520Z,5.45
2019-02-25T04:49:25.113Z,5.95
2019-02-25T04:51:56.156Z,5.10
2019-02-25T04:54:26.922Z,4.67
2019-02-25T04:56:57.626Z,5.33
2019-02-25T04:59:28.375Z,5.03
2019-02-25T05:01:59.181Z,4.40
2019-02-25T05:04:29.836Z,4.50
2019-02-25T05:07:01.029Z,8.05
2019-02-25T05:09:31.565Z,4.92
2019-02-25T05:12:02.327Z,4.97
2019-02-25T05:14:33.144Z,4.97
2019-02-25T05:17:03.839Z,4.80
2019-02-25T05:19:35.109Z,5.05
2019-02-25T05:22:05.903Z,5.05
2019-02-25T05:24:36.540Z,4.62
2019-02-25T05:27:07.085Z,4.17
2019-02-25T05:29:37.588Z,5.00
2019-02-25T05:32:08.259Z,4.35
2019-02-25T05:34:38.789Z,4.40
2019-02-25T05:37:10.380Z,3.72
2019-02-25T05:39:40.903Z,4.20
2019-02-25T05:42:11.684Z,4.85
2019-02-25T05:44:42.420Z,4.10
2019-02-25T05:47:13.100Z,4.45
2019-02-25T05:49:43.713Z,4.40
2019-02-25T05:52:14.408Z,3.83
2019-02-25T05:54:45.093Z,3.90
2019-02-25T05:57:15.786Z,5.12
2019-02-25T05:59:46.493Z,4.00
2019-02-25T06:02:17.317Z,4.20
2019-02-25T06:04:47.845Z,4.30
2019-02-25T06:07:18.516Z,4.42
2019-02-25T06:09:49.107Z,3.72
2019-02-25T06:12:19.677Z,3.40
2019-02-25T06:14:50.276Z,3.35
2019-02-25T06:17:21.256Z,3.25
2019-02-25T06:19:52.040Z,3.22
2019-02-25T06:22:22.582Z,3.40
2019-02-25T06:24:53.383Z,3.62
2019-02-25T06:27:30.494Z,3.15
2019-02-25T06:29:57.111Z,2.95
2019-02-25T06:32:27.767Z,3.33
2019-02-25T06:34:58.810Z,3.08
2019-02-25T06:37:29.885Z,3.22
2019-02-25T06:40:00.448Z,3.15
2019-02-25T06:42:30.977Z,3.27
2019-02-25T06:45:01.460Z,3.10
2019-02-25T06:47:32.052Z,2.83
2019-02-25T06:50:02.674Z,3.00
2019-02-25T06:52:33.269Z,2.90
2019-02-25T06:55:03.864Z,2.98
2019-02-25T06:57:34.428Z,2.70
2019-02-25T07:00:06.345Z,3.10
2019-02-25T07:02:37.237Z,2.77
2019-02-25T07:05:26.824Z,2.62
2019-02-25T07:08:01.312Z,2.80
2019-02-25T07:11:06.056Z,2.95
2019-02-25T07:13:54.441Z,2.50
2019-02-25T07:16:42.765Z,3.47
2019-02-25T07:19:23.521Z,3.20
2019-02-25T07:22:16.453Z,2.70
2019-02-25T07:25:07.804Z,2.67
2019-02-25T07:27:57.259Z,3.12
2019-02-25T07:30:42.043Z,10.20
2019-02-25T07:33:27.923Z,4.20
2019-02-25T07:36:32.608Z,4.78
2019-02-25T07:39:20.544Z,4.00
2019-02-25T07:42:10.609Z,3.30
2019-02-25T07:44:47.185Z,3.58
2019-02-25T07:47:35.004Z,4.33
2019-02-25T07:50:21.389Z,5.00
2019-02-25T07:53:09.688Z,3.65
2019-02-25T07:56:02.428Z,4.50
2019-02-25T07:58:45.852Z,4.37
2019-02-25T08:01:38.052Z,3.27
2019-02-25T08:04:36.575Z,3.50
2019-02-25T08:07:38.256Z,3.37
2019-02-25T08:10:31.513Z,2.92
2019-02-25T08:13:20.111Z,3.10
2019-02-25T08:16:03.692Z,3.05
2019-02-25T08:18:51.752Z,2.90
2019-02-25T08:21:44.501Z,2.30
2019-02-25T08:24:36.908Z,2.80
2019-02-25T08:27:26.698Z,2.33
2019-02-25T08:30:16.352Z,2.50
2019-02-25T08:33:06.029Z,2.60
2019-02-25T08:36:37.555Z,2.62
2019-02-25T08:39:17.477Z,2.52
2019-02-25T08:42:08.153Z,2.83
2019-02-25T08:44:57.824Z,3.47
2019-02-25T08:47:39.729Z,3.10
2019-02-25T08:50:11.445Z,2.40
2019-02-25T08:52:42.474Z,2.50
2019-02-25T08:55:13.290Z,2.83
2019-02-25T08:57:44.104Z,2.58
2019-02-25T09:00:15.398Z,2.72
2019-02-25T09:02:46.220Z,2.80
2019-02-25T09:05:17.058Z,2.70
2019-02-25T09:07:48.876Z,2.87
2019-02-25T09:10:19.719Z,2.72
2019-02-25T09:12:50.549Z,2.62
2019-02-25T09:15:21.399Z,2.65
2019-02-25T09:18:10.622Z,2.77
2019-02-25T09:20:41.486Z,2.87
2019-02-25T09:23:12.328Z,2.37
2019-02-25T09:25:43.193Z,3.12
2019-02-25T09:28:14.024Z,3.27
2019-02-25T09:30:44.860Z,3.67
2019-02-25T09:33:15.695Z,3.25
2019-02-25T09:35:46.685Z,3.42
2019-02-25T09:38:17.725Z,4.08
2019-02-25T09:40:48.548Z,2.90
2019-02-25T09:43:19.364Z,3.35
2019-02-25T09:45:50.189Z,2.33
2019-02-25T09:48:21.010Z,2.30
2019-02-25T09:50:51.835Z,2.42
2019-02-25T09:53:22.955Z,2.83
2019-02-25T09:55:53.778Z,2.42
2019-02-25T09:58:24.821Z,2.20
2019-02-25T10:00:55.652Z,2.12
2019-02-25T10:03:26.468Z,2.30
2019-02-25T10:05:57.342Z,2.27
2019-02-25T10:08:28.165Z,2.00
2019-02-25T10:10:59.013Z,2.08
2019-02-25T10:13:29.828Z,2.15
2019-02-25T10:16:00.648Z,2.15
2019-02-25T10:18:31.473Z,2.22
2019-02-25T10:21:02.317Z,2.15
2019-02-25T10:23:33.133Z,2.80
2019-02-25T10:26:03.998Z,12.78
2019-02-25T10:28:34.796Z,3.02
2019-02-25T10:31:05.616Z,2.37
2019-02-25T10:33:36.424Z,1.87
2019-02-25T10:36:07.273Z,2.33
2019-02-25T10:38:38.098Z,2.33
2019-02-25T10:41:09.025Z,2.12
2019-02-25T10:43:39.914Z,2.22
2019-02-25T10:46:12.974Z,2.52
2019-02-25T10:48:43.384Z,2.62
2019-02-25T10:51:14.220Z,2.50
2019-02-25T10:53:45.696Z,2.35
2019-02-25T10:56:25.929Z,2.75
2019-02-25T10:58:57.712Z,2.40
2019-02-25T11:01:29.395Z,2.45
2019-02-25T11:04:00.197Z,2.42
2019-02-25T11:06:34.583Z,3.00
2019-02-25T11:09:20.906Z,2.87
2019-02-25T11:11:52.709Z,3.58
2019-02-25T11:14:24.468Z,3.45
2019-02-25T11:16:55.726Z,3.10
2019-02-25T11:19:28.200Z,2.70
2019-02-25T11:21:59.090Z,2.65
2019-02-25T11:24:29.957Z,2.95
2019-02-25T11:27:01.449Z,2.60
2019-02-25T11:29:33.300Z,2.92
2019-02-25T11:32:04.175Z,2.58
2019-02-25T11:34:35.757Z,2.27
2019-02-25T11:37:07.437Z,2.55
2019-02-25T11:39:38.256Z,2.37
2019-02-25T11:42:10.826Z,2.50
2019-02-25T11:44:41.830Z,2.98
2019-02-25T11:47:13.439Z,2.83
2019-02-25T11:49:44.264Z,2.87
2019-02-25T11:52:15.188Z,2.95
2019-02-25T11:54:45.993Z,3.52
2019-02-25T11:57:16.821Z,2.90
2019-02-25T11:59:47.618Z,3.45
2019-02-25T12:02:25.191Z,3.50
2019-02-25T12:04:50.915Z,3.00
2019-02-25T12:07:21.746Z,3.25
2019-02-25T12:09:52.568Z,2.60
2019-02-25T12:12:23.404Z,2.17
2019-02-25T12:14:55.235Z,2.45
2019-02-25T12:17:26.069Z,2.10
2019-02-25T12:19:56.884Z,2.60
2019-02-25T12:22:28.725Z,2.30
2019-02-25T12:24:59.524Z,2.42
2019-02-25T12:27:30.361Z,2.17
2019-02-25T12:30:01.178Z,2.37
2019-02-25T12:32:32.102Z,2.08
2019-02-25T12:35:03.299Z,2.50
2019-02-25T12:37:34.125Z,2.85
2019-02-25T12:40:05.473Z,2.42
2019-02-25T12:42:36.317Z,2.60
2019-02-25T12:45:07.640Z,2.83
2019-02-25T12:47:38.464Z,2.52
2019-02-25T12:50:10.352Z,2.70
2019-02-25T12:52:41.180Z,2.60
2019-02-25T12:55:12.538Z,2.87
2019-02-25T12:57:43.778Z,2.72
2019-02-25T13:00:15.330Z,3.15
2019-02-25T13:02:47.166Z,3.40
2019-02-25T13:05:18.111Z,2.83
2019-02-25T13:07:48.916Z,2.37
2019-02-25T13:10:19.956Z,2.83
2019-02-25T13:12:51.739Z,3.12
2019-02-25T13:15:22.896Z,2.67
2019-02-25T13:17:53.721Z,2.85
2019-02-25T13:20:24.525Z,2.52
2019-02-25T13:22:55.350Z,2.50
2019-02-25T13:25:26.182Z,2.80
2019-02-25T13:27:58.748Z,2.98
2019-02-25T13:30:29.577Z,2.60
2019-02-25T13:33:00.416Z,2.62
2019-02-25T13:35:31.457Z,3.45
2019-02-25T13:38:02.604Z,2.60
2019-02-25T13:40:33.758Z,2.52
2019-02-25T13:43:04.580Z,2.47
2019-02-25T13:45:35.411Z,2.90
2019-02-25T13:48:06.783Z,2.60
2019-02-25T13:50:37.609Z,2.65
2019-02-25T13:53:08.475Z,2.47
2019-02-25T13:55:39.389Z,2.87
2019-02-25T13:58:10.236Z,2.72
2019-02-25T14:00:41.357Z,2.42
2019-02-25T14:03:12.521Z,1.92
2019-02-25T14:05:43.542Z,2.30
2019-02-25T14:08:14.852Z,2.50
2019-02-25T14:10:46.108Z,2.05
2019-02-25T14:13:17.139Z,2.15
2019-02-25T14:15:48.158Z,2.22
2019-02-25T14:18:19.282Z,2.62
2019-02-25T14:20:55.108Z,2.17
2019-02-25T14:23:26.148Z,2.87
2019-02-25T14:25:58.807Z,2.00
2019-02-25T14:28:30.302Z,2.20
2019-02-25T14:31:01.144Z,2.12
2019-02-25T14:33:35.641Z,1.95
2019-02-25T14:36:05.923Z,2.12
2019-02-25T14:38:37.287Z,2.25
2019-02-25T14:41:09.446Z,2.05
2019-02-25T14:43:46.209Z,2.55
2019-02-25T14:46:14.545Z,1.82
2019-02-25T14:48:46.615Z,2.10
2019-02-25T14:51:18.429Z,2.37
2019-02-25T14:53:50.035Z,2.80
2019-02-25T14:56:21.704Z,2.58
2019-02-25T14:58:52.963Z,2.35
2019-02-25T15:01:25.672Z,3.50
2019-02-25T15:03:58.054Z,2.60
2019-02-25T15:06:30.395Z,2.58
2019-02-25T15:09:01.810Z,2.17
2019-02-25T15:11:35.395Z,2.52
2019-02-25T15:14:08.095Z,3.12
2019-02-25T15:16:39.140Z,2.15
2019-02-25T15:19:09.988Z,2.10
2019-02-25T15:21:43.022Z,2.75
2019-02-25T15:24:16.706Z,2.35
2019-02-25T15:26:47.961Z,2.17
2019-02-25T15:29:18.909Z,2.40
2019-02-25T15:31:50.579Z,2.37
2019-02-25T15:34:22.352Z,2.27
2019-02-25T15:36:53.219Z,2.90
2019-02-25T15:39:26.010Z,2.33
2019-02-25T15:41:56.932Z,2.17
2019-02-25T15:44:27.899Z,2.10
2019-02-25T15:47:00.240Z,2.77
2019-02-25T15:49:31.964Z,2.22
2019-02-25T15:52:02.883Z,3.15
2019-02-25T15:54:35.093Z,3.65
2019-02-25T15:57:06.170Z,2.40
2019-02-25T15:59:38.133Z,2.75
2019-02-25T16:02:13.494Z,2.65
2019-02-25T16:04:42.733Z,2.47
2019-02-25T16:07:13.739Z,2.35
2019-02-25T16:09:46.088Z,2.60
2019-02-25T16:12:17.902Z,2.30
2019-02-25T16:14:50.580Z,2.55
2019-02-25T16:17:22.275Z,2.90
2019-02-25T16:19:54.539Z,2.75
2019-02-25T16:22:26.217Z,2.50
2019-02-25T16:24:59.027Z,2.20
2019-02-25T16:27:30.333Z,2.40
2019-02-25T16:30:02.915Z,2.58
2019-02-25T16:32:35.323Z,2.40
2019-02-25T16:35:07.247Z,2.42
2019-02-25T16:37:38.399Z,2.20
2019-02-25T16:40:11.092Z,2.20
2019-02-25T16:42:41.905Z,2.10
2019-02-25T16:45:15.088Z,2.50
2019-02-25T16:47:46.347Z,2.52
2019-02-25T16:50:18.709Z,2.00
2019-02-25T16:52:50.144Z,2.15
2019-02-25T16:55:22.671Z,2.30
2019-02-25T16:57:53.937Z,2.92
2019-02-25T17:00:25.262Z,2.35
2019-02-25T17:02:59.323Z,2.22
2019-02-25T17:05:30.024Z,2.37
2019-02-25T17:08:02.998Z,2.35
2019-02-25T17:10:33.864Z,2.45
2019-02-25T17:13:06.391Z,2.30
2019-02-25T17:15:38.247Z,2.42
2019-02-25T17:18:09.262Z,2.30
2019-02-25T17:20:40.135Z,2.33
2019-02-25T17:23:10.943Z,2.08
2019-02-25T17:25:43.591Z,2.20
2019-02-25T17:28:17.475Z,2.72
2019-02-25T17:30:49.555Z,2.33
2019-02-25T17:33:20.123Z,2.20
2019-02-25T17:35:52.118Z,2.25
2019-02-25T17:38:24.622Z,2.40
2019-02-25T17:40:55.973Z,2.20
2019-02-25T17:43:26.788Z,2.85
2019-02-25T17:45:58.234Z,2.33
2019-02-25T17:48:30.170Z,2.20
2019-02-25T17:51:01.687Z,2.15
2019-02-25T17:53:33.448Z,2.33
2019-02-25T17:56:04.500Z,2.70
2019-02-25T17:58:36.059Z,2.20
2019-02-25T18:01:09.182Z,2.55
2019-02-25T18:03:41.651Z,2.85
2019-02-25T18:06:12.434Z,2.17
2019-02-25T18:08:44.391Z,2.17
2019-02-25T18:11:15.731Z,2.20
2019-02-25T18:13:49.018Z,2.17
2019-02-25T18:16:20.347Z,2.60
2019-02-25T18:18:52.488Z,5.00
2019-02-25T18:21:28.274Z,2.10
2019-02-25T18:23:56.873Z,2.22
2019-02-25T18:26:28.614Z,2.65
2019-02-25T18:29:00.357Z,2.22
2019-02-25T18:31:31.492Z,2.42
2019-02-25T18:34:02.344Z,2.70
2019-02-25T18:36:33.375Z,2.67
2019-02-25T18:39:05.849Z,2.90
2019-02-25T18:41:38.285Z,2.30
2019-02-25T18:44:10.907Z,2.30
2019-02-25T18:46:43.602Z,2.85
2019-02-25T18:49:14.246Z,3.22
2019-02-25T18:51:45.208Z,3.00
2019-02-25T18:54:17.009Z,2.30
2019-02-25T18:56:48.468Z,3.50
2019-02-25T18:59:20.330Z,3.00
2019-02-25T19:01:53.607Z,3.37
2019-02-25T19:04:24.304Z,3.30
2019-02-25T19:06:56.613Z,3.80
2019-02-25T19:09:27.711Z,3.55
2019-02-25T19:11:58.861Z,3.92
2019-02-25T19:14:31.160Z,2.87
2019-02-25T19:17:04.261Z,3.20
2019-02-25T19:19:38.128Z,2.65
2019-02-25T19:22:08.581Z,3.35
2019-02-25T19:24:42.289Z,2.75
2019-02-25T19:27:12.961Z,2.35
2019-02-25T19:29:45.549Z,2.92
2019-02-25T19:32:16.345Z,2.42
2019-02-25T19:34:47.364Z,2.65
2019-02-25T19:37:18.369Z,2.60
2019-02-25T19:39:50.643Z,2.40
2019-02-25T19:42:22.889Z,2.42
2019-02-25T19:44:54.196Z,2.72
2019-02-25T19:47:27.442Z,2.45
2019-02-25T19:49:59.572Z,2.60
2019-02-25T19:52:34.745Z,2.45
2019-02-25T19:55:05.623Z,1.95
2019-02-25T19:57:36.243Z,2.00
2019-02-25T20:00:11.631Z,2.10
2019-02-25T20:02:42.556Z,2.60
2019-02-25T20:05:14.231Z,3.50
2019-02-25T20:07:46.737Z,3.33
2019-02-25T20:10:17.651Z,17.25
2019-02-25T20:12:50.970Z,9.38
2019-02-25T20:15:25.017Z,2.52
2019-02-25T20:17:55.270Z,3.55
2019-02-25T20:21:07.816Z,2.98
2019-02-25T20:23:17.225Z,3.65
2019-02-25T20:25:51.127Z,4.15
2019-02-25T20:28:26.674Z,3.45
2019-02-25T20:30:58.874Z,2.70
2019-02-25T20:33:32.338Z,2.65
2019-02-25T20:36:03.359Z,2.17
2019-02-25T20:38:37.267Z,2.65
2019-02-25T20:41:08.928Z,2.85
2019-02-25T20:43:40.835Z,3.10
2019-02-25T20:46:11.859Z,3.37
2019-02-25T20:48:46.491Z,2.65
2019-02-25T20:51:16.553Z,3.12
2019-02-25T20:53:50.701Z,3.22
2019-02-25T20:56:33.152Z,2.58
2019-02-25T20:59:07.923Z,2.90
2019-02-25T21:01:44.644Z,2.95
2019-02-25T21:04:20.095Z,3.20
2019-02-25T21:06:54.412Z,2.65
2019-02-25T21:09:25.692Z,2.90
2019-02-25T21:12:01.262Z,2.72
2019-02-25T21:14:35.669Z,2.70
2019-02-25T21:17:12.881Z,2.75
2019-02-25T21:19:44.859Z,2.60
2019-02-25T21:22:23.165Z,2.60
2019-02-25T21:24:55.753Z,2.75
2019-02-25T21:27:28.325Z,2.95
2019-02-25T21:29:59.055Z,3.12
2019-02-25T21:32:30.423Z,2.72
2019-02-25T21:35:11.833Z,2.90
2019-02-25T21:37:38.141Z,3.27
2019-02-25T21:40:14.880Z,2.95
2019-02-25T21:42:46.890Z,2.70
2019-02-25T21:45:20.300Z,3.40
2019-02-25T21:47:54.036Z,2.40
2019-02-25T21:50:26.265Z,2.77
2019-02-25T21:52:56.716Z,2.80
2019-02-25T21:55:28.542Z,2.80
2019-02-25T21:58:02.510Z,2.22
2019-02-25T22:00:35.123Z,3.15
2019-02-25T22:03:08.296Z,2.42
2019-02-25T22:05:37.528Z,3.05
2019-02-25T22:08:08.371Z,3.10
2019-02-25T22:10:41.412Z,2.70
2019-02-25T22:13:13.507Z,2.72
2019-02-25T22:15:45.256Z,2.80
2019-02-25T22:18:17.357Z,2.77
2019-02-25T22:20:49.370Z,3.17
2019-02-25T22:23:22.209Z,2.77
2019-02-25T22:25:53.252Z,3.15
2019-02-25T22:28:24.075Z,2.50
2019-02-25T22:30:54.957Z,3.10
2019-02-25T22:33:27.882Z,2.70
2019-02-25T22:35:58.293Z,2.95
2019-02-25T22:38:29.233Z,3.40
2019-02-25T22:41:02.163Z,2.58
2019-02-25T22:43:32.692Z,2.70
2019-02-25T22:46:05.417Z,2.90
2019-02-25T22:48:37.586Z,2.77
2019-02-25T22:51:08.493Z,2.50
2019-02-25T22:53:39.328Z,2.62
2019-02-25T22:56:13.337Z,2.60
2019-02-25T22:58:43.036Z,2.40
2019-02-25T23:01:18.087Z,2.20
2019-02-25T23:03:50.548Z,2.90
2019-02-25T23:06:23.141Z,2.65
2019-02-25T23:08:55.570Z,2.70
2019-02-25T23:11:26.180Z,2.12
2019-02-25T23:13:57.480Z,2.83
2019-02-25T23:16:28.311Z,2.37
2019-02-25T23:18:59.215Z,3.58
2019-02-25T23:21:31.361Z,3.75
2019-02-25T23:24:03.045Z,4.15
2019-02-25T23:26:35.056Z,3.02
2019-02-25T23:29:05.904Z,3.20
2019-02-25T23:31:36.729Z,3.08
2019-02-25T23:34:10.384Z,2.60
2019-02-25T23:36:44.825Z,3.35
2019-02-25T23:39:17.087Z,3.02
2019-02-25T23:41:48.691Z,2.92
2019-02-25T23:44:22.059Z,2.85
2019-02-25T23:46:57.901Z,2.77
2019-02-25T23:49:28.437Z,3.40
2019-02-25T23:52:00.308Z,2.67
2019-02-25T23:54:31.574Z,3.00
2019-02-25T23:57:04.762Z,3.20
2019-02-25T23:59:44.144Z,2.80
